createdAt,value
2023-04-01T04:03:34.790Z,97793.72
2023-04-01T04:07:37.647Z,97795.94
2023-04-01T04:11:43.203Z,97795.94
2023-04-01T04:15:45.824Z,97798.81
2023-04-01T04:19:49.759Z,97805.59
2023-04-01T04:23:52.864Z,97795.63
2023-04-01T04:27:56.869Z,97809.59
2023-04-01T04:31:59.596Z,97803.03
2023-04-01T04:36:05.718Z,97811.13
2023-04-01T04:40:10.128Z,97804.41
2023-04-01T04:44:12.675Z,97809.53
2023-04-01T04:48:19.556Z,97800.66
2023-04-01T04:52:23.548Z,97809.22
2023-04-01T04:56:27.025Z,97807.59
2023-04-01T05:00:44.673Z,97807.09
2023-04-01T05:04:54.772Z,97807.84
2023-04-01T05:08:58.703Z,97814.00
2023-04-01T05:13:01.241Z,97818.28
2023-04-01T05:17:03.978Z,97824.06
2023-04-01T05:21:10.142Z,97824.63
2023-04-01T05:25:14.063Z,97825.28
2023-04-01T05:29:16.633Z,97821.09
2023-04-01T05:33:21.107Z,97829.91
2023-04-01T05:37:24.093Z,97829.69
2023-04-01T05:41:27.935Z,97835.38
2023-04-01T05:45:30.724Z,97832.38
2023-04-01T05:49:48.090Z,97836.94
2023-04-01T05:53:50.710Z,97841.34
2023-04-01T05:57:55.027Z,97833.44
2023-04-01T06:01:58.831Z,97838.22
2023-04-01T06:06:03.513Z,97838.22
2023-04-01T06:10:14.592Z,97837.66
2023-04-01T06:14:32.847Z,97843.69
2023-04-01T06:18:56.240Z,97840.38
2023-04-01T06:23:19.203Z,97843.69
2023-04-01T06:27:38.554Z,97841.22
2023-04-01T06:32:02.695Z,97841.69
2023-04-01T06:36:17.894Z,97847.56
2023-04-01T06:40:55.997Z,97846.81
2023-04-01T06:45:11.229Z,97844.28
2023-04-01T06:49:58.566Z,97852.81
2023-04-01T06:54:24.913Z,97853.97
2023-04-01T06:58:46.320Z,97864.25
2023-04-01T07:02:54.666Z,97858.88
2023-04-01T07:07:01.664Z,97861.91
2023-04-01T07:11:06.586Z,97862.19
2023-04-01T07:15:38.547Z,97860.00
2023-04-01T07:19:49.078Z,97860.25
2023-04-01T07:23:56.321Z,97861.19
2023-04-01T07:28:34.984Z,97873.91
2023-04-01T07:32:52.909Z,97872.88
2023-04-01T07:37:02.339Z,97876.19
2023-04-01T07:41:16.454Z,97875.16
2023-04-01T07:45:27.597Z,97883.63
2023-04-01T07:49:38.783Z,97879.31
2023-04-01T07:53:51.932Z,97885.34
2023-04-01T07:58:04.145Z,97887.19
2023-04-01T08:02:24.907Z,97895.03
2023-04-01T08:06:34.392Z,97898.00
2023-04-01T08:10:42.943Z,97896.78
2023-04-01T08:15:23.315Z,97895.47
2023-04-01T08:19:58.250Z,97905.59
2023-04-01T08:24:15.657Z,97907.69
2023-04-01T08:28:24.957Z,97915.81
2023-04-01T08:32:34.904Z,97913.97
2023-04-01T08:36:40.791Z,97917.84
2023-04-01T08:41:02.961Z,97912.75
2023-04-01T08:45:46.947Z,97923.56
2023-04-01T08:50:12.951Z,97918.28
2023-04-01T08:54:37.646Z,97922.09
2023-04-01T08:59:10.576Z,97922.97
2023-04-01T09:03:38.554Z,97928.53
2023-04-01T09:07:50.297Z,97926.72
2023-04-01T09:12:15.733Z,97927.69
2023-04-01T09:16:31.541Z,97937.53
2023-04-01T09:20:48.431Z,97938.41
2023-04-01T09:25:16.521Z,97940.53
2023-04-01T09:29:33.336Z,97939.31
2023-04-01T09:34:06.358Z,97951.03
2023-04-01T09:38:31.131Z,97947.06
2023-04-01T09:43:04.401Z,97948.69
2023-04-01T09:47:25.782Z,97951.97
2023-04-01T09:51:39.301Z,97955.97
2023-04-01T09:56:15.837Z,97957.69
2023-04-01T10:00:57.341Z,97960.63
2023-04-01T10:05:29.846Z,97963.31
2023-04-01T10:09:56.818Z,97967.13
2023-04-01T10:14:19.370Z,97966.22
2023-04-01T10:18:49.492Z,97979.03
2023-04-01T10:23:20.223Z,97982.09
2023-04-01T10:27:43.415Z,97979.38
2023-04-01T10:32:36.042Z,97970.38
2023-04-01T10:36:50.530Z,97974.97
2023-04-01T10:41:29.532Z,97976.66
2023-04-01T10:46:29.698Z,97973.94
2023-04-01T10:51:02.717Z,97973.16
2023-04-01T10:55:39.225Z,97982.13
2023-04-01T11:00:52.084Z,97973.22
2023-04-01T11:05:59.303Z,97972.41
2023-04-01T11:10:39.658Z,97977.28
2023-04-01T11:15:17.689Z,97978.13
2023-04-01T11:19:56.465Z,97980.78
2023-04-01T11:24:17.302Z,97983.53
2023-04-01T11:29:17.417Z,97982.72
2023-04-01T11:33:28.088Z,97979.94
2023-04-01T11:37:41.006Z,97990.31
2023-04-01T11:42:19.803Z,97988.72
2023-04-01T11:46:51.028Z,97999.28
2023-04-01T11:51:22.509Z,98003.34
2023-04-01T11:55:34.214Z,98006.81
2023-04-01T11:59:51.354Z,98003.31
2023-04-01T12:04:25.282Z,98007.84
2023-04-01T12:08:39.293Z,98012.19
2023-04-01T12:13:00.155Z,98007.84
2023-04-01T12:17:10.889Z,98010.94
2023-04-01T12:21:24.048Z,98014.81
2023-04-01T12:25:45.381Z,98025.88
2023-04-01T12:30:16.517Z,98032.31
2023-04-01T12:34:43.019Z,98033.19
2023-04-01T12:39:08.443Z,98030.19
2023-04-01T12:43:37.505Z,98034.75
2023-04-01T12:48:08.320Z,98046.81
2023-04-01T12:52:13.477Z,98047.31
2023-04-01T12:56:22.572Z,98040.88
2023-04-01T13:00:40.216Z,98052.19
2023-04-01T13:05:33.601Z,98051.69
2023-04-01T13:09:51.910Z,98060.38
2023-04-01T13:14:31.904Z,98054.13
2023-04-01T13:18:45.262Z,98056.19
2023-04-01T13:23:03.023Z,98061.97
2023-04-01T13:27:13.898Z,98069.16
2023-04-01T13:31:30.450Z,98064.53
2023-04-01T13:35:45.187Z,98065.41
2023-04-01T13:40:05.540Z,98066.91
2023-04-01T13:44:13.163Z,98073.25
2023-04-01T13:48:39.606Z,98079.25
2023-04-01T13:53:11.345Z,98080.19
2023-04-01T13:57:30.158Z,98083.66
2023-04-01T14:01:40.978Z,98092.16
2023-04-01T14:05:58.768Z,98090.03
2023-04-01T14:10:17.049Z,98093.81
2023-04-01T14:14:26.673Z,98094.38
2023-04-01T14:18:43.718Z,98101.41
2023-04-01T14:22:56.813Z,98109.03
2023-04-01T14:27:19.014Z,98117.44
2023-04-01T14:31:45.205Z,98117.19
2023-04-01T14:35:58.861Z,98114.19
2023-04-01T14:40:29.666Z,98126.16
2023-04-01T14:44:55.681Z,98129.94
2023-04-01T14:49:02.045Z,98134.00
2023-04-01T14:53:18.557Z,98138.63
2023-04-01T14:57:26.454Z,98135.66
2023-04-01T15:01:47.571Z,98137.56
2023-04-01T15:05:55.407Z,98140.56
2023-04-01T15:10:08.966Z,98148.16
2023-04-01T15:14:25.204Z,98151.97
2023-04-01T15:18:42.413Z,98161.47
2023-04-01T15:23:02.639Z,98162.56
2023-04-01T15:27:21.827Z,98172.00
2023-04-01T15:31:31.314Z,98184.19
2023-04-01T15:35:43.521Z,98190.44
2023-04-01T15:39:56.460Z,98191.13
2023-04-01T15:43:58.998Z,98202.69
2023-04-01T15:48:07.913Z,98207.59
2023-04-01T15:52:21.364Z,98209.84
2023-04-01T15:56:30.452Z,98219.25
2023-04-01T16:00:44.810Z,98219.19
2023-04-01T16:04:59.248Z,98220.78
2023-04-01T16:09:19.672Z,98232.88
2023-04-01T16:13:37.184Z,98239.97
2023-04-01T16:18:07.580Z,98243.66
2023-04-01T16:22:15.629Z,98248.47
2023-04-01T16:26:27.547Z,98252.00
2023-04-01T16:30:38.443Z,98257.31
2023-04-01T16:34:47.163Z,98262.72
2023-04-01T16:38:54.842Z,98266.81
2023-04-01T16:43:12.236Z,98268.78
2023-04-01T16:47:19.259Z,98269.53
2023-04-01T16:51:22.320Z,98284.31
2023-04-01T16:55:35.773Z,98285.19
2023-04-01T16:59:46.592Z,98288.34
2023-04-01T17:03:54.216Z,98302.28
2023-04-01T17:08:07.963Z,98299.56
2023-04-01T17:12:17.545Z,98311.13
2023-04-01T17:16:49.785Z,98315.88
2023-04-01T17:20:59.838Z,98321.31
2023-04-01T17:25:16.611Z,98327.81
2023-04-01T17:29:28.720Z,98336.00
2023-04-01T17:33:44.589Z,98348.63
2023-04-01T17:37:59.646Z,98352.41
2023-04-01T17:42:08.145Z,98359.38
2023-04-01T17:46:33.893Z,98363.94
2023-04-01T17:50:54.836Z,98369.88
2023-04-01T17:55:21.322Z,98375.19
2023-04-01T17:59:37.720Z,98383.31
2023-04-01T18:03:57.756Z,98391.16
2023-04-01T18:08:19.574Z,98398.38
2023-04-01T18:12:32.937Z,98404.84
2023-04-01T18:16:49.095Z,98412.72
2023-04-01T18:21:00.353Z,98419.19
2023-04-01T18:25:18.056Z,98435.69
2023-04-01T18:29:30.262Z,98447.69
2023-04-01T18:33:42.812Z,98446.81
2023-04-01T18:37:50.124Z,98461.19
2023-04-01T18:42:02.016Z,98466.06
2023-04-01T18:46:12.099Z,98469.72
2023-04-01T18:50:24.257Z,98485.38
2023-04-01T18:54:33.133Z,98491.50
2023-04-01T18:58:47.988Z,98503.59
2023-04-01T19:02:57.342Z,98516.16
2023-04-01T19:07:01.581Z,98517.66
2023-04-01T19:11:12.905Z,98536.19
2023-04-01T19:15:29.163Z,98537.22
2023-04-01T19:19:44.572Z,98556.34
2023-04-01T19:24:22.688Z,98566.38
2023-04-01T19:28:37.207Z,98575.03
2023-04-01T19:32:51.942Z,98583.00
2023-04-01T19:36:58.499Z,98587.44
2023-04-01T19:41:06.302Z,98595.34
2023-04-01T19:45:28.138Z,98604.56
2023-04-01T19:49:44.130Z,98616.78
2023-04-01T19:53:52.689Z,98617.53
2023-04-01T19:58:01.991Z,98622.25
2023-04-01T20:02:28.947Z,98639.44
2023-04-01T20:06:37.567Z,98649.63
2023-04-01T20:10:50.757Z,98657.66
2023-04-01T20:14:56.763Z,98671.28
2023-04-01T20:19:02.084Z,98683.03
2023-04-01T20:23:26.381Z,98687.75
2023-04-01T20:27:35.038Z,98694.38
2023-04-01T20:31:42.317Z,98705.16
2023-04-01T20:35:59.175Z,98712.72
2023-04-01T20:40:24.581Z,98710.22
2023-04-01T20:44:37.947Z,98725.38
2023-04-01T20:48:58.810Z,98721.69
2023-04-01T20:53:07.548Z,98724.03
2023-04-01T20:57:17.592Z,98743.72
